sensor_id;sensor_type;location;lat;lon;timestamp;pressure;altitude;pressure_sealevel;temperature;humidity
40948;BME280;49382;-25.924;28.194;2022-07-29T00:00:33;85582.72;;;15.01;37.33
40948;BME280;49382;-25.924;28.194;2022-07-29T00:02:58;85582.91;;;15.45;36.69
40948;BME280;49382;-25.924;28.194;2022-07-29T00:05:24;85580.67;;;15.59;36.53
40948;BME280;49382;-25.924;28.194;2022-07-29T00:07:50;85572.04;;;14.75;37.63
40948;BME280;49382;-25.924;28.194;2022-07-29T00:10:15;85566.33;;;15.20;36.97
40948;BME280;49382;-25.924;28.194;2022-07-29T00:12:41;85562.60;;;15.26;37.36
40948;BME280;49382;-25.924;28.194;2022-07-29T00:15:07;85561.72;;;14.73;37.80
40948;BME280;49382;-25.924;28.194;2022-07-29T00:17:32;85558.71;;;15.17;37.56
40948;BME280;49382;-25.924;28.194;2022-07-29T00:19:57;85551.00;;;15.50;37.17
40948;BME280;49382;-25.924;28.194;2022-07-29T00:22:23;85547.69;;;15.23;37.43
40948;BME280;49382;-25.924;28.194;2022-07-29T00:24:49;85540.36;;;14.88;37.63
40948;BME280;49382;-25.924;28.194;2022-07-29T00:27:14;85537.15;;;14.23;38.86
40948;BME280;49382;-25.924;28.194;2022-07-29T00:29:40;85532.95;;;14.43;38.39
40948;BME280;49382;-25.924;28.194;2022-07-29T00:32:06;85530.05;;;14.61;38.20
40948;BME280;49382;-25.924;28.194;2022-07-29T00:34:31;85534.39;;;14.19;38.80
40948;BME280;49382;-25.924;28.194;2022-07-29T00:36:57;85531.63;;;15.12;37.49
40948;BME280;49382;-25.924;28.194;2022-07-29T00:39:22;85537.40;;;14.65;38.22
40948;BME280;49382;-25.924;28.194;2022-07-29T00:41:47;85538.26;;;15.62;36.96
40948;BME280;49382;-25.924;28.194;2022-07-29T00:44:12;85539.17;;;14.97;37.80
40948;BME280;49382;-25.924;28.194;2022-07-29T00:46:38;85542.11;;;15.25;37.31
40948;BME280;49382;-25.924;28.194;2022-07-29T00:49:03;85543.50;;;15.10;37.60
40948;BME280;49382;-25.924;28.194;2022-07-29T00:51:29;85542.37;;;15.53;37.63
40948;BME280;49382;-25.924;28.194;2022-07-29T00:53:54;85543.89;;;15.47;37.30
40948;BME280;49382;-25.924;28.194;2022-07-29T00:56:20;85540.88;;;15.35;37.14
40948;BME280;49382;-25.924;28.194;2022-07-29T00:58:46;85539.72;;;15.43;37.39
40948;BME280;49382;-25.924;28.194;2022-07-29T01:01:10;85539.89;;;14.76;37.99
40948;BME280;49382;-25.924;28.194;2022-07-29T01:03:36;85543.07;;;14.84;38.09
40948;BME280;49382;-25.924;28.194;2022-07-29T01:06:01;85540.46;;;15.17;37.83
40948;BME280;49382;-25.924;28.194;2022-07-29T01:08:26;85537.33;;;14.88;37.93
40948;BME280;49382;-25.924;28.194;2022-07-29T01:10:53;85531.31;;;14.83;38.35
40948;BME280;49382;-25.924;28.194;2022-07-29T01:13:18;85526.38;;;15.01;38.13
40948;BME280;49382;-25.924;28.194;2022-07-29T01:15:46;85515.25;;;14.88;38.53
40948;BME280;49382;-25.924;28.194;2022-07-29T01:18:14;85515.05;;;14.73;38.23
40948;BME280;49382;-25.924;28.194;2022-07-29T01:20:44;85508.25;;;14.99;37.86
40948;BME280;49382;-25.924;28.194;2022-07-29T01:23:08;85501.13;;;14.71;38.42
40948;BME280;49382;-25.924;28.194;2022-07-29T01:25:37;85502.88;;;15.22;38.16
40948;BME280;49382;-25.924;28.194;2022-07-29T01:28:04;85511.08;;;14.57;38.41
40948;BME280;49382;-25.924;28.194;2022-07-29T01:30:16;85522.79;;;14.81;38.44
40948;BME280;49382;-25.924;28.194;2022-07-29T01:32:44;85529.86;;;15.31;38.03
40948;BME280;49382;-25.924;28.194;2022-07-29T01:35:12;85532.74;;;15.24;38.19
40948;BME280;49382;-25.924;28.194;2022-07-29T01:37:39;85536.91;;;15.22;38.14
40948;BME280;49382;-25.924;28.194;2022-07-29T01:40:01;85540.05;;;15.07;37.96
40948;BME280;49382;-25.924;28.194;2022-07-29T01:42:30;85540.28;;;15.58;37.36
40948;BME280;49382;-25.924;28.194;2022-07-29T01:44:55;85541.25;;;15.43;37.91
40948;BME280;49382;-25.924;28.194;2022-07-29T01:47:20;85541.30;;;15.17;37.97
40948;BME280;49382;-25.924;28.194;2022-07-29T01:49:44;85539.88;;;14.75;38.59
40948;BME280;49382;-25.924;28.194;2022-07-29T01:52:11;85535.54;;;14.39;38.26
40948;BME280;49382;-25.924;28.194;2022-07-29T01:54:35;85534.22;;;14.81;38.61
40948;BME280;49382;-25.924;28.194;2022-07-29T01:56:59;85533.65;;;14.37;38.93
40948;BME280;49382;-25.924;28.194;2022-07-29T01:59:22;85533.39;;;14.37;39.47
40948;BME280;49382;-25.924;28.194;2022-07-29T02:01:49;85529.10;;;13.89;40.19
40948;BME280;49382;-25.924;28.194;2022-07-29T02:04:14;85518.70;;;14.38;39.88
40948;BME280;49382;-25.924;28.194;2022-07-29T02:06:40;85517.85;;;14.53;39.84
40948;BME280;49382;-25.924;28.194;2022-07-29T02:09:04;85516.00;;;14.27;39.98
40948;BME280;49382;-25.924;28.194;2022-07-29T02:11:30;85515.06;;;14.78;39.07
40948;BME280;49382;-25.924;28.194;2022-07-29T02:13:56;85513.73;;;14.37;40.35
40948;BME280;49382;-25.924;28.194;2022-07-29T02:16:21;85513.91;;;14.50;40.13
40948;BME280;49382;-25.924;28.194;2022-07-29T02:18:45;85515.69;;;14.09;40.46
40948;BME280;49382;-25.924;28.194;2022-07-29T02:21:12;85518.33;;;14.53;40.25
40948;BME280;49382;-25.924;28.194;2022-07-29T02:23:38;85515.42;;;14.37;40.64
40948;BME280;49382;-25.924;28.194;2022-07-29T02:26:03;85512.86;;;14.28;40.90
40948;BME280;49382;-25.924;28.194;2022-07-29T02:28:29;85510.81;;;14.45;40.52
40948;BME280;49382;-25.924;28.194;2022-07-29T02:30:54;85508.80;;;14.03;41.13
40948;BME280;49382;-25.924;28.194;2022-07-29T02:33:19;85511.85;;;14.38;40.33
40948;BME280;49382;-25.924;28.194;2022-07-29T02:35:44;85511.50;;;14.18;41.33
40948;BME280;49382;-25.924;28.194;2022-07-29T02:38:12;85508.84;;;13.60;41.86
40948;BME280;49382;-25.924;28.194;2022-07-29T02:40:35;85505.72;;;13.29;42.42
40948;BME280;49382;-25.924;28.194;2022-07-29T02:43:00;85507.71;;;14.16;41.17
40948;BME280;49382;-25.924;28.194;2022-07-29T02:45:26;85511.53;;;14.13;41.15
40948;BME280;49382;-25.924;28.194;2022-07-29T02:47:51;85503.58;;;13.75;41.78
40948;BME280;49382;-25.924;28.194;2022-07-29T02:50:20;85508.53;;;14.16;41.32
40948;BME280;49382;-25.924;28.194;2022-07-29T02:52:47;85509.73;;;13.36;42.50
40948;BME280;49382;-25.924;28.194;2022-07-29T02:55:14;85509.02;;;13.83;41.86
40948;BME280;49382;-25.924;28.194;2022-07-29T02:57:36;85510.23;;;14.42;40.80
40948;BME280;49382;-25.924;28.194;2022-07-29T03:00:04;85511.67;;;14.16;41.29
40948;BME280;49382;-25.924;28.194;2022-07-29T03:02:26;85517.86;;;13.53;41.79
40948;BME280;49382;-25.924;28.194;2022-07-29T03:04:51;85527.61;;;14.24;41.23
40948;BME280;49382;-25.924;28.194;2022-07-29T03:07:18;85533.82;;;13.92;41.67
40948;BME280;49382;-25.924;28.194;2022-07-29T03:09:42;85539.37;;;13.95;41.42
40948;BME280;49382;-25.924;28.194;2022-07-29T03:12:07;85537.27;;;14.52;40.51
40948;BME280;49382;-25.924;28.194;2022-07-29T03:14:32;85538.22;;;14.00;41.75
40948;BME280;49382;-25.924;28.194;2022-07-29T03:16:57;85539.27;;;13.67;41.72
40948;BME280;49382;-25.924;28.194;2022-07-29T03:19:22;85543.33;;;14.12;41.31
40948;BME280;49382;-25.924;28.194;2022-07-29T03:21:48;85545.98;;;14.48;40.50
40948;BME280;49382;-25.924;28.194;2022-07-29T03:26:40;85547.46;;;13.70;42.03
40948;BME280;49382;-25.924;28.194;2022-07-29T03:29:06;85540.06;;;13.37;41.36
40948;BME280;49382;-25.924;28.194;2022-07-29T03:31:31;85533.99;;;13.35;42.63
40948;BME280;49382;-25.924;28.194;2022-07-29T03:33:56;85536.44;;;13.98;42.19
40948;BME280;49382;-25.924;28.194;2022-07-29T03:36:21;85534.43;;;13.58;42.43
40948;BME280;49382;-25.924;28.194;2022-07-29T03:38:48;85532.62;;;14.09;41.55
40948;BME280;49382;-25.924;28.194;2022-07-29T03:41:13;85525.04;;;13.86;41.83
40948;BME280;49382;-25.924;28.194;2022-07-29T03:43:41;85526.72;;;14.08;42.14
40948;BME280;49382;-25.924;28.194;2022-07-29T03:46:06;85534.22;;;13.13;43.05
40948;BME280;49382;-25.924;28.194;2022-07-29T03:48:31;85555.25;;;13.60;42.39
40948;BME280;49382;-25.924;28.194;2022-07-29T03:50:56;85560.77;;;13.57;42.64
40948;BME280;49382;-25.924;28.194;2022-07-29T03:53:21;85563.28;;;14.07;42.17
40948;BME280;49382;-25.924;28.194;2022-07-29T03:55:50;85562.82;;;13.52;42.73
40948;BME280;49382;-25.924;28.194;2022-07-29T03:58:13;85566.03;;;13.72;42.60
40948;BME280;49382;-25.924;28.194;2022-07-29T04:00:38;85568.77;;;13.84;42.11
40948;BME280;49382;-25.924;28.194;2022-07-29T04:03:04;85567.92;;;14.04;41.96
40948;BME280;49382;-25.924;28.194;2022-07-29T04:05:28;85562.92;;;13.82;41.16
40948;BME280;49382;-25.924;28.194;2022-07-29T04:07:54;85559.93;;;13.54;42.17
40948;BME280;49382;-25.924;28.194;2022-07-29T04:10:20;85556.81;;;13.33;43.01
40948;BME280;49382;-25.924;28.194;2022-07-29T04:12:45;85556.88;;;13.28;43.19
40948;BME280;49382;-25.924;28.194;2022-07-29T04:15:12;85558.18;;;13.72;42.47
40948;BME280;49382;-25.924;28.194;2022-07-29T04:17:36;85558.89;;;13.90;42.63
40948;BME280;49382;-25.924;28.194;2022-07-29T04:20:02;85554.40;;;13.51;42.86
40948;BME280;49382;-25.924;28.194;2022-07-29T04:22:27;85553.03;;;13.75;42.61
40948;BME280;49382;-25.924;28.194;2022-07-29T04:24:53;85553.11;;;13.03;43.82
40948;BME280;49382;-25.924;28.194;2022-07-29T04:27:19;85559.01;;;13.54;43.82
40948;BME280;49382;-25.924;28.194;2022-07-29T04:29:44;85564.16;;;13.94;42.45
40948;BME280;49382;-25.924;28.194;2022-07-29T04:32:10;85568.74;;;14.11;42.10
40948;BME280;49382;-25.924;28.194;2022-07-29T04:34:35;85562.75;;;13.89;42.56
40948;BME280;49382;-25.924;28.194;2022-07-29T04:37:01;85572.89;;;13.78;42.75
40948;BME280;49382;-25.924;28.194;2022-07-29T04:39:26;85575.17;;;13.66;43.32
40948;BME280;49382;-25.924;28.194;2022-07-29T04:41:51;85583.55;;;14.05;42.58
40948;BME280;49382;-25.924;28.194;2022-07-29T04:44:16;85592.11;;;14.04;42.24
40948;BME280;49382;-25.924;28.194;2022-07-29T04:46:42;85588.96;;;13.85;42.46
40948;BME280;49382;-25.924;28.194;2022-07-29T04:49:08;85590.25;;;13.75;41.91
40948;BME280;49382;-25.924;28.194;2022-07-29T04:51:33;85591.50;;;14.06;42.17
40948;BME280;49382;-25.924;28.194;2022-07-29T04:53:59;85591.05;;;14.02;41.78
40948;BME280;49382;-25.924;28.194;2022-07-29T04:56:24;85586.55;;;13.24;43.26
40948;BME280;49382;-25.924;28.194;2022-07-29T04:58:50;85584.01;;;13.65;42.66
40948;BME280;49382;-25.924;28.194;2022-07-29T05:01:16;85585.17;;;13.66;42.69
40948;BME280;49382;-25.924;28.194;2022-07-29T05:03:41;85583.71;;;13.81;42.51
40948;BME280;49382;-25.924;28.194;2022-07-29T05:06:06;85573.21;;;13.99;42.15
40948;BME280;49382;-25.924;28.194;2022-07-29T05:08:32;85566.03;;;14.31;41.48
40948;BME280;49382;-25.924;28.194;2022-07-29T05:10:58;85563.61;;;13.60;42.77
40948;BME280;49382;-25.924;28.194;2022-07-29T05:13:23;85560.29;;;13.18;43.80
40948;BME280;49382;-25.924;28.194;2022-07-29T05:15:48;85568.53;;;13.55;43.02
40948;BME280;49382;-25.924;28.194;2022-07-29T05:18:13;85576.15;;;14.05;42.28
40948;BME280;49382;-25.924;28.194;2022-07-29T05:20:39;85582.80;;;14.27;41.83
40948;BME280;49382;-25.924;28.194;2022-07-29T05:23:04;85581.31;;;14.70;40.25
40948;BME280;49382;-25.924;28.194;2022-07-29T05:25:30;85581.44;;;14.38;41.17
40948;BME280;49382;-25.924;28.194;2022-07-29T05:27:55;85583.67;;;14.50;40.71
40948;BME280;49382;-25.924;28.194;2022-07-29T05:30:20;85587.28;;;14.38;41.01
40948;BME280;49382;-25.924;28.194;2022-07-29T05:32:46;85590.06;;;14.88;40.63
40948;BME280;49382;-25.924;28.194;2022-07-29T05:35:13;85592.71;;;14.67;41.01
40948;BME280;49382;-25.924;28.194;2022-07-29T05:37:36;85600.72;;;14.29;41.16
40948;BME280;49382;-25.924;28.194;2022-07-29T05:40:02;85604.79;;;14.43;40.85
40948;BME280;49382;-25.924;28.194;2022-07-29T05:42:27;85604.55;;;15.06;40.16
40948;BME280;49382;-25.924;28.194;2022-07-29T05:44:53;85601.84;;;15.18;39.48
40948;BME280;49382;-25.924;28.194;2022-07-29T05:47:18;85603.99;;;15.04;39.44
40948;BME280;49382;-25.924;28.194;2022-07-29T05:49:43;85605.41;;;14.86;40.70
40948;BME280;49382;-25.924;28.194;2022-07-29T05:52:09;85609.39;;;14.89;40.03
40948;BME280;49382;-25.924;28.194;2022-07-29T05:54:34;85607.58;;;14.58;40.78
40948;BME280;49382;-25.924;28.194;2022-07-29T05:56:59;85602.49;;;15.27;39.17
40948;BME280;49382;-25.924;28.194;2022-07-29T05:59:24;85603.41;;;14.70;40.74
40948;BME280;49382;-25.924;28.194;2022-07-29T06:01:49;85601.66;;;14.43;41.58
40948;BME280;49382;-25.924;28.194;2022-07-29T06:04:14;85602.25;;;14.84;40.78
40948;BME280;49382;-25.924;28.194;2022-07-29T06:06:40;85602.98;;;15.28;40.15
40948;BME280;49382;-25.924;28.194;2022-07-29T06:09:06;85604.01;;;15.23;41.05
40948;BME280;49382;-25.924;28.194;2022-07-29T06:11:31;85608.72;;;15.45;40.36
40948;BME280;49382;-25.924;28.194;2022-07-29T06:13:56;85612.38;;;15.20;40.54
40948;BME280;49382;-25.924;28.194;2022-07-29T06:16:22;85616.53;;;15.26;40.37
40948;BME280;49382;-25.924;28.194;2022-07-29T06:18:47;85616.64;;;15.60;40.47
40948;BME280;49382;-25.924;28.194;2022-07-29T06:21:12;85620.11;;;15.75;40.37
40948;BME280;49382;-25.924;28.194;2022-07-29T06:23:38;85622.22;;;14.98;41.22
40948;BME280;49382;-25.924;28.194;2022-07-29T06:26:03;85619.15;;;15.87;39.72
40948;BME280;49382;-25.924;28.194;2022-07-29T06:28:29;85621.08;;;16.04;39.49
40948;BME280;49382;-25.924;28.194;2022-07-29T06:30:54;85618.93;;;15.63;39.26
40948;BME280;49382;-25.924;28.194;2022-07-29T06:33:20;85612.36;;;16.03;38.91
40948;BME280;49382;-25.924;28.194;2022-07-29T06:35:45;85608.60;;;16.13;39.28
40948;BME280;49382;-25.924;28.194;2022-07-29T06:38:10;85601.42;;;15.96;38.67
40948;BME280;49382;-25.924;28.194;2022-07-29T06:40:35;85608.22;;;17.41;37.49
40948;BME280;49382;-25.924;28.194;2022-07-29T06:43:01;85609.77;;;16.67;37.61
40948;BME280;49382;-25.924;28.194;2022-07-29T06:45:27;85605.97;;;17.20;36.88
40948;BME280;49382;-25.924;28.194;2022-07-29T06:47:53;85604.14;;;16.82;36.59
40948;BME280;49382;-25.924;28.194;2022-07-29T06:50:18;85608.67;;;16.69;37.44
40948;BME280;49382;-25.924;28.194;2022-07-29T06:52:43;85613.54;;;17.99;35.48
40948;BME280;49382;-25.924;28.194;2022-07-29T06:55:09;85619.21;;;17.67;35.19
40948;BME280;49382;-25.924;28.194;2022-07-29T06:57:34;85627.75;;;17.63;35.50
40948;BME280;49382;-25.924;28.194;2022-07-29T07:00:00;85633.14;;;17.98;35.20
40948;BME280;49382;-25.924;28.194;2022-07-29T07:02:25;85637.59;;;17.97;35.14
40948;BME280;49382;-25.924;28.194;2022-07-29T07:04:51;85643.49;;;19.12;33.69
40948;BME280;49382;-25.924;28.194;2022-07-29T07:07:16;85645.84;;;18.39;33.95
40948;BME280;49382;-25.924;28.194;2022-07-29T07:09:42;85651.39;;;19.71;33.39
40948;BME280;49382;-25.924;28.194;2022-07-29T07:12:07;85653.35;;;19.05;32.98
40948;BME280;49382;-25.924;28.194;2022-07-29T07:14:32;85647.77;;;18.78;33.03
40948;BME280;49382;-25.924;28.194;2022-07-29T07:16:57;85647.85;;;19.68;32.54
40948;BME280;49382;-25.924;28.194;2022-07-29T07:19:23;85647.32;;;20.07;31.60
40948;BME280;49382;-25.924;28.194;2022-07-29T07:21:49;85644.90;;;19.63;31.60
40948;BME280;49382;-25.924;28.194;2022-07-29T07:24:14;85650.61;;;20.17;30.90
40948;BME280;49382;-25.924;28.194;2022-07-29T07:26:40;85648.40;;;20.59;30.01
40948;BME280;49382;-25.924;28.194;2022-07-29T07:29:05;85649.77;;;20.30;30.77
40948;BME280;49382;-25.924;28.194;2022-07-29T07:31:31;85648.81;;;20.55;29.70
40948;BME280;49382;-25.924;28.194;2022-07-29T07:33:57;85647.57;;;20.92;29.67
40948;BME280;49382;-25.924;28.194;2022-07-29T07:36:23;85645.41;;;21.55;28.64
40948;BME280;49382;-25.924;28.194;2022-07-29T07:38:48;85644.61;;;22.29;27.51
40948;BME280;49382;-25.924;28.194;2022-07-29T07:41:14;85644.55;;;21.93;27.60
40948;BME280;49382;-25.924;28.194;2022-07-29T07:43:39;85637.90;;;21.53;28.68
40948;BME280;49382;-25.924;28.194;2022-07-29T07:46:05;85630.33;;;21.82;27.36
40948;BME280;49382;-25.924;28.194;2022-07-29T07:48:32;85625.90;;;22.14;25.77
40948;BME280;49382;-25.924;28.194;2022-07-29T07:50:56;85627.71;;;22.87;24.79
40948;BME280;49382;-25.924;28.194;2022-07-29T07:53:21;85628.97;;;22.34;25.19
40948;BME280;49382;-25.924;28.194;2022-07-29T07:55:47;85628.21;;;22.86;24.96
40948;BME280;49382;-25.924;28.194;2022-07-29T07:58:13;85625.23;;;23.48;25.54
40948;BME280;49382;-25.924;28.194;2022-07-29T08:00:39;85627.88;;;23.91;24.49
40948;BME280;49382;-25.924;28.194;2022-07-29T08:03:04;85627.21;;;24.42;23.72
40948;BME280;49382;-25.924;28.194;2022-07-29T08:05:30;85625.16;;;23.81;23.88
40948;BME280;49382;-25.924;28.194;2022-07-29T08:07:55;85628.27;;;24.65;23.50
40948;BME280;49382;-25.924;28.194;2022-07-29T08:10:21;85628.91;;;24.39;23.56
40948;BME280;49382;-25.924;28.194;2022-07-29T08:12:47;85633.13;;;25.45;23.26
40948;BME280;49382;-25.924;28.194;2022-07-29T08:15:12;85631.84;;;25.34;22.29
40948;BME280;49382;-25.924;28.194;2022-07-29T08:17:38;85633.14;;;25.57;22.64
40948;BME280;49382;-25.924;28.194;2022-07-29T08:20:05;85630.50;;;26.99;21.51
40948;BME280;49382;-25.924;28.194;2022-07-29T08:22:30;85625.12;;;26.78;20.34
40948;BME280;49382;-25.924;28.194;2022-07-29T08:24:55;85619.12;;;26.34;21.56
40948;BME280;49382;-25.924;28.194;2022-07-29T08:27:21;85617.72;;;26.65;22.16
40948;BME280;49382;-25.924;28.194;2022-07-29T08:29:47;85619.51;;;28.01;19.97
40948;BME280;49382;-25.924;28.194;2022-07-29T08:32:12;85615.79;;;26.89;19.43
40948;BME280;49382;-25.924;28.194;2022-07-29T08:34:38;85614.48;;;26.62;21.15
40948;BME280;49382;-25.924;28.194;2022-07-29T08:37:03;85607.05;;;27.44;20.41
40948;BME280;49382;-25.924;28.194;2022-07-29T08:39:29;85610.55;;;28.19;19.13
40948;BME280;49382;-25.924;28.194;2022-07-29T08:41:55;85609.48;;;27.83;18.29
40948;BME280;49382;-25.924;28.194;2022-07-29T08:44:20;85604.03;;;28.41;19.46
40948;BME280;49382;-25.924;28.194;2022-07-29T08:46:46;85605.65;;;29.35;19.08
40948;BME280;49382;-25.924;28.194;2022-07-29T08:49:12;85605.59;;;29.61;17.66
40948;BME280;49382;-25.924;28.194;2022-07-29T08:51:40;85606.36;;;29.36;17.42
40948;BME280;49382;-25.924;28.194;2022-07-29T08:54:04;85610.70;;;30.27;16.62
40948;BME280;49382;-25.924;28.194;2022-07-29T08:56:29;85612.45;;;30.45;16.57
40948;BME280;49382;-25.924;28.194;2022-07-29T08:58:54;85613.13;;;30.42;15.80
40948;BME280;49382;-25.924;28.194;2022-07-29T09:01:24;85605.95;;;29.89;15.53
40948;BME280;49382;-25.924;28.194;2022-07-29T09:03:46;85596.64;;;29.31;15.57
40948;BME280;49382;-25.924;28.194;2022-07-29T09:06:13;85594.69;;;30.40;16.47
40948;BME280;49382;-25.924;28.194;2022-07-29T09:08:37;85589.69;;;30.96;15.37
40948;BME280;49382;-25.924;28.194;2022-07-29T09:11:03;85583.77;;;29.81;15.38
40948;BME280;49382;-25.924;28.194;2022-07-29T09:13:28;85583.94;;;29.77;15.03
40948;BME280;49382;-25.924;28.194;2022-07-29T09:15:54;85578.09;;;30.89;14.36
40948;BME280;49382;-25.924;28.194;2022-07-29T09:20:52;85577.40;;;30.18;15.74
40948;BME280;49382;-25.924;28.194;2022-07-29T09:23:10;85566.07;;;28.98;16.37
40948;BME280;49382;-25.924;28.194;2022-07-29T09:25:37;85561.09;;;28.42;16.70
40948;BME280;49382;-25.924;28.194;2022-07-29T09:28:06;85551.65;;;28.08;16.43
40948;BME280;49382;-25.924;28.194;2022-07-29T09:30:27;85551.05;;;28.32;17.26
40948;BME280;49382;-25.924;28.194;2022-07-29T09:32:56;85543.40;;;28.11;18.12
40948;BME280;49382;-25.924;28.194;2022-07-29T09:35:21;85540.01;;;27.59;18.41
40948;BME280;49382;-25.924;28.194;2022-07-29T09:37:43;85536.16;;;27.05;19.39
40948;BME280;49382;-25.924;28.194;2022-07-29T09:40:13;85534.57;;;27.41;18.53
40948;BME280;49382;-25.924;28.194;2022-07-29T09:42:34;85526.04;;;26.81;19.26
40948;BME280;49382;-25.924;28.194;2022-07-29T09:45:00;85521.22;;;25.57;19.60
40948;BME280;49382;-25.924;28.194;2022-07-29T09:49:53;85508.09;;;25.05;20.44
40948;BME280;49382;-25.924;28.194;2022-07-29T09:52:17;85497.14;;;25.03;20.61
40948;BME280;49382;-25.924;28.194;2022-07-29T09:54:43;85491.49;;;23.75;21.01
40948;BME280;49382;-25.924;28.194;2022-07-29T09:57:09;85482.05;;;23.60;20.97
40948;BME280;49382;-25.924;28.194;2022-07-29T09:59:34;85473.96;;;23.56;21.81
40948;BME280;49382;-25.924;28.194;2022-07-29T10:01:59;85474.51;;;24.19;20.97
40948;BME280;49382;-25.924;28.194;2022-07-29T10:04:28;85469.72;;;23.39;19.93
40948;BME280;49382;-25.924;28.194;2022-07-29T10:06:57;85469.67;;;24.17;20.25
40948;BME280;49382;-25.924;28.194;2022-07-29T10:09:16;85477.26;;;24.43;20.37
40948;BME280;49382;-25.924;28.194;2022-07-29T10:11:40;85472.60;;;23.67;19.82
40948;BME280;49382;-25.924;28.194;2022-07-29T10:14:06;85471.54;;;23.41;21.10
40948;BME280;49382;-25.924;28.194;2022-07-29T10:16:32;85469.68;;;24.07;20.94
40948;BME280;49382;-25.924;28.194;2022-07-29T10:18:57;85467.49;;;24.13;20.49
40948;BME280;49382;-25.924;28.194;2022-07-29T10:21:23;85456.30;;;22.85;20.16
40948;BME280;49382;-25.924;28.194;2022-07-29T10:23:48;85450.16;;;23.14;19.22
40948;BME280;49382;-25.924;28.194;2022-07-29T10:26:14;85447.58;;;23.54;20.26
40948;BME280;49382;-25.924;28.194;2022-07-29T10:28:39;85442.73;;;22.98;19.97
40948;BME280;49382;-25.924;28.194;2022-07-29T10:31:08;85442.74;;;23.16;19.19
40948;BME280;49382;-25.924;28.194;2022-07-29T10:33:43;85438.46;;;23.94;19.95
40948;BME280;49382;-25.924;28.194;2022-07-29T10:36:07;85438.90;;;22.98;20.41
40948;BME280;49382;-25.924;28.194;2022-07-29T10:38:37;85435.22;;;23.39;19.28
40948;BME280;49382;-25.924;28.194;2022-07-29T10:40:52;85423.91;;;23.20;19.25
40948;BME280;49382;-25.924;28.194;2022-07-29T10:43:17;85420.65;;;23.12;18.57
40948;BME280;49382;-25.924;28.194;2022-07-29T10:45:36;85414.33;;;22.57;18.40
40948;BME280;49382;-25.924;28.194;2022-07-29T10:48:04;85414.54;;;23.35;19.13
40948;BME280;49382;-25.924;28.194;2022-07-29T10:50:26;85414.06;;;22.74;19.44
40948;BME280;49382;-25.924;28.194;2022-07-29T10:52:54;85408.62;;;22.01;19.15
40948;BME280;49382;-25.924;28.194;2022-07-29T11:05:02;85388.24;;;22.31;21.28
40948;BME280;49382;-25.924;28.194;2022-07-29T11:07:24;85384.54;;;22.27;20.24
40948;BME280;49382;-25.924;28.194;2022-07-29T11:17:06;85373.28;;;22.93;20.65
40948;BME280;49382;-25.924;28.194;2022-07-29T11:19:32;85371.40;;;23.57;20.11
40948;BME280;49382;-25.924;28.194;2022-07-29T11:21:57;85368.71;;;23.11;20.42
40948;BME280;49382;-25.924;28.194;2022-07-29T11:24:24;85368.24;;;22.56;19.92
40948;BME280;49382;-25.924;28.194;2022-07-29T11:29:20;85368.38;;;22.98;18.88
40948;BME280;49382;-25.924;28.194;2022-07-29T11:31:38;85367.94;;;22.81;18.61
40948;BME280;49382;-25.924;28.194;2022-07-29T11:36:27;85363.70;;;22.55;18.12
40948;BME280;49382;-25.924;28.194;2022-07-29T11:41:23;85359.13;;;21.69;19.31
40948;BME280;49382;-25.924;28.194;2022-07-29T11:43:48;85357.17;;;22.54;19.57
40948;BME280;49382;-25.924;28.194;2022-07-29T11:46:09;85356.50;;;22.00;19.72
40948;BME280;49382;-25.924;28.194;2022-07-29T11:48:35;85354.07;;;22.53;19.94
40948;BME280;49382;-25.924;28.194;2022-07-29T11:51:00;85350.90;;;22.79;19.89
40948;BME280;49382;-25.924;28.194;2022-07-29T11:53:26;85348.31;;;22.45;19.68
40948;BME280;49382;-25.924;28.194;2022-07-29T11:55:55;85343.69;;;22.16;20.20
40948;BME280;49382;-25.924;28.194;2022-07-29T11:58:21;85343.67;;;22.40;19.95
40948;BME280;49382;-25.924;28.194;2022-07-29T12:00:41;85341.41;;;22.57;19.93
40948;BME280;49382;-25.924;28.194;2022-07-29T12:03:07;85344.67;;;22.58;20.04
40948;BME280;49382;-25.924;28.194;2022-07-29T12:05:35;85337.79;;;21.79;19.81
40948;BME280;49382;-25.924;28.194;2022-07-29T12:08:05;85333.07;;;22.66;19.17
40948;BME280;49382;-25.924;28.194;2022-07-29T12:10:22;85329.99;;;22.48;19.61
40948;BME280;49382;-25.924;28.194;2022-07-29T12:12:52;85331.21;;;22.82;19.83
40948;BME280;49382;-25.924;28.194;2022-07-29T12:15:15;85326.40;;;22.24;20.24
40948;BME280;49382;-25.924;28.194;2022-07-29T12:17:38;85325.75;;;23.06;19.87
40948;BME280;49382;-25.924;28.194;2022-07-29T12:20:05;85321.27;;;22.42;20.06
40948;BME280;49382;-25.924;28.194;2022-07-29T12:22:31;85321.42;;;22.32;20.11
40948;BME280;49382;-25.924;28.194;2022-07-29T12:25:00;85324.06;;;22.29;19.57
40948;BME280;49382;-25.924;28.194;2022-07-29T12:27:22;85322.60;;;21.47;19.36
40948;BME280;49382;-25.924;28.194;2022-07-29T12:32:11;85310.20;;;22.21;19.63
40948;BME280;49382;-25.924;28.194;2022-07-29T12:34:36;85314.80;;;22.47;19.61
40948;BME280;49382;-25.924;28.194;2022-07-29T12:37:01;85307.10;;;22.59;19.88
40948;BME280;49382;-25.924;28.194;2022-07-29T12:39:26;85306.61;;;22.73;20.30
40948;BME280;49382;-25.924;28.194;2022-07-29T12:41:52;85302.12;;;22.39;20.88
40948;BME280;49382;-25.924;28.194;2022-07-29T12:44:17;85297.90;;;22.00;20.76
40948;BME280;49382;-25.924;28.194;2022-07-29T12:46:43;85296.69;;;21.02;20.84
40948;BME280;49382;-25.924;28.194;2022-07-29T12:49:08;85294.33;;;22.35;20.57
40948;BME280;49382;-25.924;28.194;2022-07-29T12:51:35;85291.43;;;22.35;20.55
40948;BME280;49382;-25.924;28.194;2022-07-29T12:54:05;85292.07;;;22.56;20.26
40948;BME280;49382;-25.924;28.194;2022-07-29T12:56:25;85294.09;;;22.15;19.94
40948;BME280;49382;-25.924;28.194;2022-07-29T12:58:50;85294.47;;;22.16;19.35
40948;BME280;49382;-25.924;28.194;2022-07-29T13:01:17;85293.94;;;21.75;20.01
40948;BME280;49382;-25.924;28.194;2022-07-29T13:03:47;85295.54;;;21.90;19.68